createdAt,value
2022-08-03T00:04:17.520Z,21.37
2022-08-03T00:09:49.184Z,21.27
2022-08-03T00:12:01.520Z,0.00
2022-08-03T00:17:53.386Z,21.21
2022-08-03T00:23:05.341Z,21.17
2022-08-03T00:28:36.968Z,21.11
2022-08-03T00:34:08.788Z,21.09
2022-08-03T00:45:09.532Z,20.97
2022-08-03T00:50:41.302Z,20.95
2022-08-03T00:56:13.392Z,20.93
2022-08-03T03:02:33.429Z,19.79
2022-08-03T03:08:05.202Z,19.79
2022-08-03T03:13:36.949Z,19.76
2022-08-03T03:19:08.834Z,19.75
2022-08-03T03:24:40.557Z,19.70
2022-08-03T03:30:12.419Z,19.64
2022-08-03T03:35:44.443Z,19.62
2022-08-03T03:41:16.716Z,19.57
2022-08-03T03:46:48.590Z,19.57
2022-08-03T03:52:20.307Z,19.52
2022-08-03T03:57:52.264Z,19.51
2022-08-03T04:03:23.932Z,19.51
2022-08-03T04:08:56.151Z,19.48
2022-08-03T04:14:27.958Z,19.65
2022-08-03T04:19:59.596Z,20.02
2022-08-03T04:25:31.397Z,21.05
2022-08-03T04:31:03.308Z,21.65
2022-08-03T04:36:35.326Z,22.92
2022-08-03T04:42:08.720Z,23.57
2022-08-03T04:47:39.162Z,24.82
2022-08-03T04:53:10.814Z,25.45
2022-08-03T04:58:42.856Z,26.71
2022-08-03T05:04:14.987Z,27.34
2022-08-03T05:09:50.659Z,27.20
2022-08-03T05:15:18.466Z,26.82
2022-08-03T05:20:50.181Z,25.96
2022-08-03T05:26:22.015Z,25.60
2022-08-03T05:31:53.683Z,24.96
2022-08-03T05:37:25.383Z,24.65
2022-08-03T05:42:57.150Z,24.27
2022-08-03T05:48:28.756Z,24.52
2022-08-03T05:54:00.818Z,26.81
2022-08-03T05:59:39.478Z,28.03
2022-08-03T06:05:04.411Z,30.24
2022-08-03T06:10:38.264Z,31.22
2022-08-03T06:16:07.960Z,33.02
2022-08-03T06:21:39.885Z,33.89
2022-08-03T06:27:11.586Z,35.27
2022-08-03T06:32:43.664Z,35.89
2022-08-03T06:38:15.764Z,36.78
2022-08-03T06:44:03.305Z,37.17
2022-08-03T06:49:19.200Z,37.88
2022-08-03T06:54:51.111Z,38.20
2022-08-03T07:00:23.483Z,38.53
2022-08-03T07:05:55.644Z,38.61
2022-08-03T07:11:27.446Z,39.00
2022-08-03T07:16:59.276Z,39.05
2022-08-03T07:22:31.364Z,38.60
2022-08-03T07:28:03.471Z,38.57
2022-08-03T07:33:35.563Z,38.67
2022-08-03T07:39:15.934Z,38.58
2022-08-03T07:44:39.837Z,38.18
2022-08-03T07:50:12.051Z,38.02
2022-08-03T07:55:43.723Z,37.57
2022-08-03T08:01:15.455Z,37.24
2022-08-03T08:12:17.245Z,37.43
2022-08-03T08:17:49.070Z,37.48
2022-08-03T08:23:29.857Z,37.56
2022-08-03T08:28:52.294Z,37.33
2022-08-03T08:34:23.407Z,37.03
2022-08-03T08:39:54.778Z,37.45
2022-08-03T08:45:26.393Z,37.51
2022-08-03T08:50:58.169Z,37.51
2022-08-03T08:56:30.256Z,37.45
2022-08-03T09:02:01.914Z,37.44
2022-08-03T09:07:33.916Z,37.54
2022-08-03T09:13:05.356Z,37.74
2022-08-03T09:18:36.668Z,37.75
2022-08-03T09:24:16.467Z,37.65
2022-08-03T09:29:41.009Z,37.45
2022-08-03T09:35:12.958Z,37.09
2022-08-03T09:40:44.797Z,36.88
2022-08-03T09:48:29.643Z,0.00
2022-08-03T09:54:01.470Z,35.62
2022-08-03T09:59:32.866Z,35.03
2022-08-03T10:05:04.476Z,34.12
2022-08-03T10:10:36.234Z,33.80
2022-08-03T10:16:22.329Z,33.38
2022-08-03T10:21:40.085Z,33.36
2022-08-03T10:27:11.908Z,33.22
2022-08-03T10:32:43.629Z,33.11
2022-08-03T10:38:15.123Z,33.04
2022-08-03T10:43:46.596Z,32.88
2022-08-03T10:49:33.658Z,32.88
2022-08-03T10:54:50.469Z,32.78
2022-08-03T11:00:22.438Z,32.66
2022-08-03T11:05:54.149Z,32.63
2022-08-03T11:11:25.661Z,32.64
2022-08-03T11:16:57.544Z,32.64
2022-08-03T11:22:29.455Z,32.74
2022-08-03T11:28:01.134Z,32.73
2022-08-03T11:33:32.622Z,32.88
2022-08-03T11:39:04.853Z,32.87
2022-08-03T11:44:36.956Z,32.92
2022-08-03T11:50:08.721Z,32.97
2022-08-03T11:55:40.398Z,33.04
2022-08-03T12:01:12.141Z,33.08
2022-08-03T12:06:47.261Z,33.22
2022-08-03T12:12:15.829Z,33.11
2022-08-03T12:17:47.575Z,33.18
2022-08-03T12:23:19.071Z,33.19
2022-08-03T12:28:50.287Z,33.25
2022-08-03T12:34:21.757Z,33.22
2022-08-03T12:40:02.938Z,33.35
2022-08-03T12:45:25.633Z,33.48
2022-08-03T12:50:57.487Z,33.62
2022-08-03T12:56:29.137Z,33.56
2022-08-03T13:02:01.052Z,33.52
2022-08-03T13:07:32.722Z,33.50
2022-08-03T13:13:04.365Z,33.52
2022-08-03T13:18:35.988Z,33.56
2022-08-03T13:24:07.551Z,33.50
2022-08-03T13:29:39.256Z,33.59
2022-08-03T13:35:11.349Z,33.72
2022-08-03T13:40:42.874Z,33.74
2022-08-03T13:46:14.676Z,33.81
2022-08-03T13:51:46.487Z,33.87
2022-08-03T13:58:18.974Z,33.91
2022-08-03T14:02:50.816Z,33.97
2022-08-03T14:08:22.633Z,34.12
2022-08-03T14:13:54.222Z,34.17
2022-08-03T14:19:26.135Z,34.24
2022-08-03T14:24:57.467Z,34.19
2022-08-03T14:30:28.950Z,34.34
2022-08-03T14:36:00.810Z,34.41
2022-08-03T14:41:32.687Z,34.51
2022-08-03T14:47:04.642Z,34.53
2022-08-03T14:52:36.290Z,34.69
2022-08-03T14:58:20.650Z,34.76
2022-08-03T15:03:39.864Z,34.80
2022-08-03T15:14:44.449Z,34.49
2022-08-03T15:26:04.113Z,34.42
2022-08-03T15:31:19.384Z,34.48
2022-08-03T15:42:22.893Z,34.32
2022-08-03T15:47:54.034Z,34.29
2022-08-03T15:53:25.502Z,34.29
2022-08-03T15:59:03.157Z,34.22
2022-08-03T16:04:28.335Z,34.18
2022-08-03T16:10:00.135Z,34.12
2022-08-03T16:15:31.853Z,34.06
2022-08-03T16:21:03.064Z,33.96
2022-08-03T16:26:34.943Z,33.83
2022-08-03T16:32:09.153Z,33.72
2022-08-03T16:37:39.185Z,33.66
2022-08-03T16:43:09.417Z,33.59
2022-08-03T16:54:14.088Z,33.41
2022-08-03T16:59:44.863Z,33.36
2022-08-03T17:05:16.419Z,33.24
2022-08-03T17:10:48.068Z,33.14
2022-08-03T17:16:19.871Z,32.90
2022-08-03T17:21:51.638Z,32.80
2022-08-03T17:28:51.302Z,32.64
2022-08-03T17:32:57.430Z,32.56
2022-08-03T17:38:25.918Z,32.42
2022-08-03T17:44:15.809Z,32.33
2022-08-03T17:49:29.191Z,32.16
2022-08-03T17:55:55.830Z,32.10
2022-08-03T18:00:32.770Z,31.99
2022-08-03T18:06:10.987Z,31.98
2022-08-03T18:11:38.862Z,31.85
2022-08-03T18:17:10.228Z,31.75
2022-08-03T18:22:39.902Z,31.61
2022-08-03T18:28:11.655Z,31.53
2022-08-03T18:34:16.351Z,31.30
2022-08-03T18:39:14.849Z,31.19
2022-08-03T18:44:54.204Z,30.96
2022-08-03T18:50:19.022Z,30.86
2022-08-03T18:56:01.333Z,30.64
2022-08-03T19:02:00.610Z,30.53
2022-08-03T19:06:52.500Z,30.29
2022-08-03T19:12:32.420Z,30.13
2022-08-03T19:17:55.940Z,29.89
2022-08-03T19:23:30.818Z,29.74
2022-08-03T19:28:58.931Z,29.53
2022-08-03T19:34:30.402Z,29.41
2022-08-03T19:40:02.356Z,29.17
2022-08-03T19:46:05.152Z,29.07
2022-08-03T19:51:12.099Z,28.86
2022-08-03T19:58:57.588Z,28.71
2022-08-03T20:04:29.988Z,28.64
2022-08-03T20:10:01.825Z,28.43
2022-08-03T20:15:32.956Z,28.33
2022-08-03T20:21:04.225Z,28.15
2022-08-03T20:26:35.703Z,28.03
2022-08-03T20:32:07.184Z,27.91
2022-08-03T20:37:38.801Z,27.88
2022-08-03T20:43:10.759Z,27.78
2022-08-03T20:48:42.174Z,27.68
2022-08-03T20:54:22.941Z,27.56
2022-08-03T20:59:47.066Z,27.47
2022-08-03T21:05:16.124Z,27.34
2022-08-03T21:10:47.654Z,27.30
2022-08-03T21:16:19.494Z,27.16
2022-08-03T21:21:51.106Z,27.10
2022-08-03T21:27:23.036Z,26.98
2022-08-03T21:32:55.673Z,26.89
2022-08-03T21:38:29.814Z,26.81
2022-08-03T21:43:59.612Z,26.72
2022-08-03T21:50:05.214Z,26.61
2022-08-03T21:55:03.628Z,26.52
2022-08-03T22:00:35.491Z,26.43
2022-08-03T22:06:07.086Z,26.39
2022-08-03T22:11:38.835Z,26.26
2022-08-03T22:17:10.770Z,26.22
2022-08-03T22:22:42.460Z,26.10
2022-08-03T22:28:14.264Z,26.02
2022-08-03T22:33:45.876Z,25.92
2022-08-03T22:39:25.486Z,25.85
2022-08-03T22:44:49.404Z,25.75
2022-08-03T22:50:31.234Z,25.71
2022-08-03T22:55:53.071Z,25.62
2022-08-03T23:01:24.924Z,25.61
2022-08-03T23:06:56.927Z,25.56
2022-08-03T23:12:28.524Z,25.51
2022-08-03T23:18:00.404Z,25.37
2022-08-03T23:23:44.447Z,25.30
2022-08-03T23:29:03.961Z,25.07
2022-08-03T23:40:05.159Z,24.60
2022-08-03T23:47:57.684Z,24.30
2022-08-03T23:53:28.987Z,24.19
2022-08-03T23:59:00.954Z,23.96
